createdAt,value
2023-05-18T00:00:02.656Z,6.36
2023-05-18T00:01:02.556Z,6.34
2023-05-18T00:02:02.898Z,6.30
2023-05-18T00:03:02.098Z,6.28
2023-05-18T00:04:01.880Z,6.24
2023-05-18T00:05:01.895Z,6.18
2023-05-18T00:06:02.272Z,6.14
2023-05-18T00:07:01.988Z,6.13
2023-05-18T00:08:03.071Z,6.11
2023-05-18T00:09:02.532Z,6.07
2023-05-18T00:10:02.477Z,6.05
2023-05-18T00:11:02.884Z,6.03
2023-05-18T00:12:02.508Z,6.03
2023-05-18T00:13:01.536Z,6.00
2023-05-18T00:14:02.120Z,6.05
2023-05-18T00:15:01.933Z,6.09
2023-05-18T00:16:01.878Z,6.12
2023-05-18T00:17:02.081Z,6.14
2023-05-18T00:18:01.594Z,6.15
2023-05-18T00:19:01.547Z,6.17
2023-05-18T00:20:01.601Z,6.16
2023-05-18T00:21:02.393Z,6.13
2023-05-18T00:22:01.791Z,6.12
2023-05-18T00:23:02.562Z,6.11
2023-05-18T00:24:02.169Z,6.13
2023-05-18T00:25:02.425Z,6.13
2023-05-18T00:26:02.281Z,6.10
2023-05-18T00:27:02.087Z,6.10
2023-05-18T00:28:01.924Z,6.06
2023-05-18T00:29:01.747Z,6.00
2023-05-18T00:30:02.119Z,5.96
2023-05-18T00:31:01.997Z,5.94
2023-05-18T00:32:02.309Z,5.92
2023-05-18T00:33:02.277Z,5.93
2023-05-18T00:34:01.912Z,5.94
2023-05-18T00:35:01.926Z,5.97
2023-05-18T00:36:02.155Z,5.98
2023-05-18T00:37:01.981Z,6.01
2023-05-18T00:38:02.746Z,5.99
2023-05-18T00:39:02.193Z,5.95
2023-05-18T00:40:02.394Z,5.93
2023-05-18T00:41:02.236Z,5.88
2023-05-18T00:42:02.839Z,5.85
2023-05-18T00:43:02.210Z,5.82
2023-05-18T00:44:02.061Z,5.78
2023-05-18T00:45:01.940Z,5.73
2023-05-18T00:46:02.445Z,5.75
2023-05-18T00:47:02.164Z,5.74
2023-05-18T00:48:01.763Z,5.72
2023-05-18T00:49:01.627Z,5.65
2023-05-18T00:50:01.467Z,5.60
2023-05-18T00:51:01.657Z,5.58
2023-05-18T00:52:01.393Z,5.53
2023-05-18T00:53:02.048Z,5.49
2023-05-18T00:54:01.685Z,5.48
2023-05-18T00:55:02.051Z,5.48
2023-05-18T00:56:01.877Z,5.52
2023-05-18T00:57:02.273Z,5.50
2023-05-18T00:58:02.703Z,5.56
2023-05-18T00:59:02.288Z,5.57
2023-05-18T01:00:02.514Z,5.56
2023-05-18T01:01:02.473Z,5.55
2023-05-18T01:02:02.392Z,5.51
2023-05-18T01:03:03.577Z,5.53
2023-05-18T01:04:02.972Z,5.50
2023-05-18T01:05:03.133Z,5.51
2023-05-18T01:06:02.627Z,5.52
2023-05-18T01:07:02.622Z,5.51
2023-05-18T01:08:03.306Z,5.54
2023-05-18T01:09:03.493Z,5.45
2023-05-18T01:10:03.522Z,5.46
2023-05-18T01:11:03.504Z,5.43
2023-05-18T01:12:03.108Z,5.39
2023-05-18T01:13:02.762Z,5.40
2023-05-18T01:14:02.464Z,5.40
2023-05-18T01:15:02.441Z,5.39
2023-05-18T01:16:02.611Z,5.42
2023-05-18T01:17:02.584Z,5.41
2023-05-18T01:18:02.977Z,5.40
2023-05-18T01:19:02.676Z,5.39
2023-05-18T01:20:03.109Z,5.37
2023-05-18T01:21:03.090Z,5.36
2023-05-18T01:22:03.181Z,5.35
2023-05-18T01:23:02.739Z,5.34
2023-05-18T01:24:02.744Z,5.35
2023-05-18T01:25:02.820Z,5.37
2023-05-18T01:26:02.706Z,5.38
2023-05-18T01:27:03.182Z,5.39
2023-05-18T01:28:03.446Z,5.40
2023-05-18T01:29:03.070Z,5.37
2023-05-18T01:30:03.470Z,5.36
2023-05-18T01:31:03.298Z,5.37
2023-05-18T01:32:03.528Z,5.30
2023-05-18T01:33:02.907Z,5.30
2023-05-18T01:34:02.616Z,5.28
2023-05-18T01:35:02.891Z,5.26
2023-05-18T01:36:02.751Z,5.21
2023-05-18T01:37:02.794Z,5.17
2023-05-18T01:38:03.331Z,5.11
2023-05-18T01:39:03.314Z,4.99
2023-05-18T01:40:03.408Z,4.93
2023-05-18T01:41:03.452Z,4.90
2023-05-18T01:42:03.346Z,4.83
2023-05-18T01:43:02.914Z,4.79
2023-05-18T01:44:02.645Z,4.73
2023-05-18T01:45:02.779Z,4.74
2023-05-18T01:46:02.410Z,4.76
2023-05-18T01:47:02.926Z,4.74
2023-05-18T01:48:03.192Z,4.75
2023-05-18T01:49:02.872Z,4.73
2023-05-18T01:50:02.757Z,4.70
2023-05-18T01:51:02.692Z,4.67
2023-05-18T01:52:02.568Z,4.63
2023-05-18T01:53:02.703Z,4.60
2023-05-18T01:54:02.693Z,4.59
2023-05-18T01:55:03.260Z,4.60
2023-05-18T01:56:02.847Z,4.64
2023-05-18T01:57:02.751Z,4.64
2023-05-18T01:58:03.324Z,4.59
2023-05-18T01:59:02.975Z,4.58
2023-05-18T02:00:02.998Z,4.60
2023-05-18T02:01:02.978Z,4.61
2023-05-18T02:02:03.439Z,4.63
2023-05-18T02:03:02.844Z,4.65
2023-05-18T02:04:02.856Z,4.67
2023-05-18T02:05:02.652Z,4.67
2023-05-18T02:06:02.214Z,4.69
2023-05-18T02:07:02.505Z,4.66
2023-05-18T02:08:03.149Z,4.67
2023-05-18T02:09:02.821Z,4.67
2023-05-18T02:10:03.006Z,4.67
2023-05-18T02:11:02.913Z,4.70
2023-05-18T02:12:02.835Z,4.68
2023-05-18T02:13:01.830Z,4.66
2023-05-18T02:14:02.417Z,4.60
2023-05-18T02:15:01.997Z,4.59
2023-05-18T02:16:01.815Z,4.55
2023-05-18T02:17:02.012Z,4.53
2023-05-18T02:18:02.296Z,4.49
2023-05-18T02:19:02.540Z,4.50
2023-05-18T02:20:02.521Z,4.50
2023-05-18T02:21:02.714Z,4.46
2023-05-18T02:22:02.792Z,4.46
2023-05-18T02:23:03.079Z,4.44
2023-05-18T02:24:03.048Z,4.44
2023-05-18T02:25:02.973Z,4.44
2023-05-18T02:26:02.605Z,4.40
2023-05-18T02:27:02.943Z,4.36
2023-05-18T02:28:02.140Z,4.31
2023-05-18T02:29:01.998Z,4.24
2023-05-18T02:30:02.151Z,4.19
2023-05-18T02:31:02.065Z,4.19
2023-05-18T02:32:02.157Z,4.17
2023-05-18T02:33:02.260Z,4.18
2023-05-18T02:34:02.605Z,4.22
2023-05-18T02:35:02.140Z,4.27
2023-05-18T02:36:02.819Z,4.33
2023-05-18T02:37:02.588Z,4.34
2023-05-18T02:38:02.450Z,4.33
2023-05-18T02:39:02.631Z,4.33
2023-05-18T02:40:02.567Z,4.37
2023-05-18T02:41:02.882Z,4.37
2023-05-18T02:42:02.651Z,4.37
2023-05-18T02:43:02.454Z,4.39
2023-05-18T02:44:02.592Z,4.37
2023-05-18T02:45:02.971Z,4.37
2023-05-18T02:46:02.766Z,4.36
2023-05-18T02:47:02.376Z,4.35
2023-05-18T02:48:01.965Z,4.33
2023-05-18T02:49:02.319Z,4.32
2023-05-18T02:50:01.869Z,4.34
2023-05-18T02:51:01.821Z,4.37
2023-05-18T02:52:01.929Z,4.38
2023-05-18T02:53:02.779Z,4.40
2023-05-18T02:54:02.384Z,4.38
2023-05-18T02:55:02.610Z,4.35
2023-05-18T02:56:02.322Z,4.30
2023-05-18T02:57:02.948Z,4.26
2023-05-18T02:58:02.616Z,4.22
2023-05-18T02:59:02.767Z,4.17
2023-05-18T03:00:02.633Z,4.13
2023-05-18T03:01:02.785Z,4.08
2023-05-18T03:02:02.802Z,4.04
2023-05-18T03:03:03.893Z,4.00
2023-05-18T03:04:03.645Z,4.04
2023-05-18T03:05:03.505Z,4.07
2023-05-18T03:06:03.306Z,4.07
2023-05-18T03:07:03.755Z,4.06
2023-05-18T03:08:03.380Z,4.04
2023-05-18T03:09:03.718Z,4.01
2023-05-18T03:10:03.336Z,3.97
2023-05-18T03:11:03.588Z,3.92
2023-05-18T03:12:03.751Z,3.87
2023-05-18T03:13:03.308Z,3.87
2023-05-18T03:14:03.452Z,3.87
2023-05-18T03:15:03.179Z,3.93
2023-05-18T03:16:02.978Z,3.96
2023-05-18T03:17:02.759Z,3.97
2023-05-18T03:18:03.590Z,3.99
2023-05-18T03:19:03.398Z,4.02
2023-05-18T03:20:03.616Z,4.02
2023-05-18T03:21:03.543Z,4.01
2023-05-18T03:22:03.510Z,4.01
2023-05-18T03:23:03.387Z,4.01
2023-05-18T03:24:02.991Z,4.02
2023-05-18T03:25:03.243Z,4.01
2023-05-18T03:26:03.453Z,4.03
2023-05-18T03:27:03.180Z,4.01
2023-05-18T03:28:02.810Z,4.02
2023-05-18T03:29:02.944Z,4.04
2023-05-18T03:30:02.528Z,3.97
2023-05-18T03:31:03.040Z,3.96
2023-05-18T03:32:02.646Z,3.91
2023-05-18T03:33:03.247Z,3.92
2023-05-18T03:34:03.442Z,3.89
2023-05-18T03:35:03.295Z,3.89
2023-05-18T03:36:03.207Z,3.92
2023-05-18T03:37:03.163Z,3.92
2023-05-18T03:38:02.842Z,3.90
2023-05-18T03:39:02.661Z,3.89
2023-05-18T03:40:02.558Z,3.87
2023-05-18T03:41:02.953Z,3.85
2023-05-18T03:42:02.998Z,3.85
2023-05-18T03:43:03.458Z,3.82
2023-05-18T03:44:03.445Z,3.78
2023-05-18T03:45:02.881Z,3.73
2023-05-18T03:46:02.962Z,3.69
2023-05-18T03:47:03.075Z,3.66
2023-05-18T03:48:02.886Z,3.66
2023-05-18T03:49:02.923Z,3.65
2023-05-18T03:50:02.856Z,3.64
2023-05-18T03:51:02.864Z,3.62
2023-05-18T03:52:02.582Z,3.60
2023-05-18T03:53:03.208Z,3.58
2023-05-18T03:54:03.282Z,3.56
2023-05-18T03:55:03.181Z,3.55
2023-05-18T03:56:03.055Z,3.55
2023-05-18T03:57:02.897Z,3.55
2023-05-18T03:58:03.548Z,3.54
2023-05-18T03:59:03.392Z,3.56
2023-05-18T04:00:03.144Z,3.56
2023-05-18T04:01:03.459Z,3.57
2023-05-18T04:02:03.382Z,3.53
2023-05-18T04:03:02.916Z,3.51
2023-05-18T04:04:03.318Z,3.50
2023-05-18T04:05:03.092Z,3.46
2023-05-18T04:06:02.979Z,3.43
2023-05-18T04:07:02.886Z,3.44
2023-05-18T04:08:02.580Z,3.42
2023-05-18T04:09:02.440Z,3.39
2023-05-18T04:10:02.407Z,3.34
2023-05-18T04:11:02.433Z,3.31
2023-05-18T04:12:02.531Z,3.30
2023-05-18T04:13:02.661Z,3.27
2023-05-18T04:14:02.280Z,3.25
2023-05-18T04:15:02.146Z,3.21
2023-05-18T04:16:02.567Z,3.19
2023-05-18T04:17:02.514Z,3.18
2023-05-18T04:18:03.279Z,3.15
2023-05-18T04:19:04.425Z,3.11
2023-05-18T04:20:03.067Z,3.08
2023-05-18T04:21:02.933Z,3.05
2023-05-18T04:22:02.881Z,3.02
2023-05-18T04:23:02.345Z,2.98
2023-05-18T04:24:02.330Z,2.97
2023-05-18T04:25:02.567Z,3.00
2023-05-18T04:26:02.505Z,2.98
2023-05-18T04:27:02.061Z,2.99
2023-05-18T04:28:03.045Z,3.01
2023-05-18T04:29:02.780Z,3.03
2023-05-18T04:30:02.675Z,3.05
2023-05-18T04:31:02.684Z,3.05
2023-05-18T04:32:02.836Z,3.07
2023-05-18T04:33:02.683Z,3.08
2023-05-18T04:34:02.405Z,3.11
2023-05-18T04:35:02.391Z,3.12
2023-05-18T04:36:02.378Z,3.14
2023-05-18T04:37:02.380Z,3.18
2023-05-18T04:38:02.004Z,3.17
2023-05-18T04:39:02.092Z,3.14
2023-05-18T04:40:02.076Z,3.11
2023-05-18T04:41:02.452Z,3.08
2023-05-18T04:42:02.213Z,3.08
2023-05-18T04:43:02.321Z,3.09
2023-05-18T04:44:02.780Z,3.11
2023-05-18T04:45:02.972Z,3.13
2023-05-18T04:46:02.718Z,3.15
2023-05-18T04:47:02.651Z,3.14
2023-05-18T04:48:02.369Z,3.12
2023-05-18T04:49:02.963Z,3.13
2023-05-18T04:50:02.668Z,3.13
2023-05-18T04:51:02.586Z,3.15
2023-05-18T04:52:02.752Z,3.16
2023-05-18T04:53:01.982Z,3.18
2023-05-18T04:54:02.298Z,3.20
2023-05-18T04:55:02.480Z,3.20
2023-05-18T04:56:02.560Z,3.21
2023-05-18T04:57:02.117Z,3.21
2023-05-18T04:58:02.067Z,3.22
2023-05-18T04:59:02.260Z,3.24
2023-05-18T05:00:02.023Z,3.25
2023-05-18T05:01:02.420Z,3.28
2023-05-18T05:02:02.491Z,3.31
2023-05-18T05:03:02.635Z,3.35
2023-05-18T05:04:02.705Z,3.40
2023-05-18T05:05:02.911Z,3.43
2023-05-18T05:06:02.962Z,3.46
2023-05-18T05:07:02.867Z,3.50
2023-05-18T05:08:02.910Z,3.54
2023-05-18T05:09:03.166Z,3.58
2023-05-18T05:10:02.980Z,3.64
2023-05-18T05:11:03.059Z,3.69
2023-05-18T05:12:03.320Z,3.74
2023-05-18T05:13:02.311Z,3.78
2023-05-18T05:14:02.587Z,3.85
2023-05-18T05:15:02.668Z,3.87
2023-05-18T05:16:02.368Z,3.92
2023-05-18T05:17:02.456Z,3.96
2023-05-18T05:18:02.520Z,4.03
2023-05-18T05:19:02.672Z,4.07
2023-05-18T05:20:02.619Z,4.13
2023-05-18T05:21:02.986Z,4.20
2023-05-18T05:22:02.723Z,4.26
2023-05-18T05:23:02.790Z,4.32
2023-05-18T05:24:02.714Z,4.38
2023-05-18T05:25:05.120Z,4.44
2023-05-18T05:26:02.750Z,4.50
2023-05-18T05:27:02.698Z,4.58
2023-05-18T05:28:02.375Z,4.67
2023-05-18T05:29:02.424Z,4.74
2023-05-18T05:30:02.256Z,4.79
2023-05-18T05:31:02.401Z,4.87
2023-05-18T05:32:02.517Z,4.94
2023-05-18T05:33:02.641Z,5.02
2023-05-18T05:34:02.592Z,5.12
2023-05-18T05:35:02.500Z,5.22
2023-05-18T05:36:02.544Z,5.29
2023-05-18T05:37:02.375Z,5.37
2023-05-18T05:38:02.770Z,5.47
2023-05-18T05:39:02.744Z,5.55
2023-05-18T05:40:02.757Z,5.64
2023-05-18T05:41:02.844Z,5.75
2023-05-18T05:42:02.976Z,5.83
2023-05-18T05:43:03.081Z,5.92
2023-05-18T05:44:03.061Z,6.03
2023-05-18T05:45:03.373Z,6.12
2023-05-18T05:46:03.180Z,6.20
2023-05-18T05:47:03.314Z,6.31
2023-05-18T05:48:02.558Z,6.42
2023-05-18T05:49:02.627Z,6.52
2023-05-18T05:50:02.928Z,6.64
2023-05-18T05:51:02.857Z,6.76
2023-05-18T05:52:02.819Z,6.87
2023-05-18T05:53:02.574Z,6.97
2023-05-18T05:54:02.596Z,7.09
2023-05-18T05:55:02.732Z,7.18
2023-05-18T05:56:02.815Z,7.26
2023-05-18T05:57:02.790Z,7.37
2023-05-18T05:58:02.936Z,7.45
2023-05-18T05:59:03.204Z,7.53
2023-05-18T06:00:02.901Z,7.61
2023-05-18T06:01:03.010Z,7.70
2023-05-18T06:02:02.982Z,7.80
2023-05-18T06:03:02.235Z,7.89
2023-05-18T06:04:02.158Z,7.97
2023-05-18T06:05:02.196Z,8.07
2023-05-18T06:06:02.273Z,8.16
2023-05-18T06:07:02.238Z,8.25
2023-05-18T06:08:02.611Z,8.34
2023-05-18T06:09:02.392Z,8.43
2023-05-18T06:10:02.883Z,8.50
2023-05-18T06:11:02.919Z,8.58
2023-05-18T06:12:02.952Z,8.67
2023-05-18T06:13:01.952Z,8.76
2023-05-18T06:14:02.349Z,8.83
2023-05-18T06:15:02.057Z,8.88
2023-05-18T06:16:01.675Z,8.92
2023-05-18T06:17:01.760Z,8.97
2023-05-18T06:18:02.003Z,9.03
2023-05-18T06:19:02.359Z,9.11
2023-05-18T06:20:01.952Z,9.21
2023-05-18T06:21:01.891Z,9.32
2023-05-18T06:22:01.992Z,9.42
2023-05-18T06:23:02.813Z,9.54
2023-05-18T06:24:02.682Z,9.65
2023-05-18T06:25:02.707Z,9.75
2023-05-18T06:26:02.782Z,9.84
2023-05-18T06:27:03.052Z,9.91
2023-05-18T06:28:02.087Z,9.92
2023-05-18T06:29:01.819Z,9.95
2023-05-18T06:30:02.281Z,9.93
2023-05-18T06:31:02.297Z,9.89
2023-05-18T06:32:02.403Z,9.86
2023-05-18T06:33:02.200Z,9.83
2023-05-18T06:34:02.406Z,9.88
2023-05-18T06:35:02.284Z,9.94
2023-05-18T06:36:02.141Z,10.00
2023-05-18T06:37:02.133Z,10.09
2023-05-18T06:38:02.238Z,10.19
2023-05-18T06:39:02.377Z,10.31
2023-05-18T06:40:02.544Z,10.41
2023-05-18T06:41:02.162Z,10.50
2023-05-18T06:42:02.016Z,10.61
2023-05-18T06:43:02.929Z,10.72
2023-05-18T06:44:02.879Z,10.82
2023-05-18T06:45:03.120Z,10.93
2023-05-18T06:46:03.386Z,11.04
2023-05-18T06:47:02.543Z,11.15
2023-05-18T06:48:02.048Z,11.25
2023-05-18T06:49:01.654Z,11.35
2023-05-18T06:50:01.580Z,11.45
2023-05-18T06:51:01.772Z,11.57
2023-05-18T06:52:01.919Z,11.68
2023-05-18T06:53:02.645Z,11.81
2023-05-18T06:54:02.803Z,11.93
2023-05-18T06:55:02.374Z,12.02
2023-05-18T06:56:02.903Z,12.11
2023-05-18T06:57:02.623Z,12.17
2023-05-18T06:58:02.736Z,12.25
2023-05-18T06:59:02.762Z,12.29
2023-05-18T07:00:02.983Z,12.37
2023-05-18T07:01:02.847Z,12.43
2023-05-18T07:02:02.848Z,12.46
2023-05-18T07:03:02.873Z,12.51
2023-05-18T07:04:02.655Z,12.57
2023-05-18T07:05:02.637Z,12.64
2023-05-18T07:06:02.428Z,12.74
2023-05-18T07:07:02.868Z,12.82
2023-05-18T07:08:03.050Z,12.91
2023-05-18T07:09:03.073Z,12.97
2023-05-18T07:10:02.811Z,13.01
2023-05-18T07:11:03.055Z,13.07
2023-05-18T07:12:02.978Z,13.13
2023-05-18T07:13:02.975Z,13.22
2023-05-18T07:14:03.047Z,13.33
2023-05-18T07:15:03.310Z,13.41
2023-05-18T07:16:03.265Z,13.48
2023-05-18T07:17:02.925Z,13.51
2023-05-18T07:18:02.792Z,13.56
2023-05-18T07:19:02.423Z,13.58
2023-05-18T07:20:02.615Z,13.60
2023-05-18T07:21:02.510Z,13.59
2023-05-18T07:22:02.805Z,13.60
2023-05-18T07:23:02.296Z,13.58
2023-05-18T07:24:02.093Z,13.64
2023-05-18T07:25:01.941Z,13.71
2023-05-18T07:26:02.083Z,13.78
2023-05-18T07:27:02.169Z,13.84
2023-05-18T07:28:02.464Z,13.88
2023-05-18T07:29:01.984Z,13.89
2023-05-18T07:30:02.538Z,13.96
2023-05-18T07:31:02.215Z,14.04
2023-05-18T07:32:02.547Z,14.14
2023-05-18T07:33:02.600Z,14.24
2023-05-18T07:34:02.589Z,14.32
2023-05-18T07:35:02.399Z,14.36
2023-05-18T07:36:02.219Z,14.44
2023-05-18T07:37:02.751Z,14.50
2023-05-18T07:38:02.504Z,14.62
2023-05-18T07:39:02.197Z,14.70
2023-05-18T07:40:02.565Z,14.77
2023-05-18T07:41:02.399Z,14.84
2023-05-18T07:42:02.710Z,14.95
2023-05-18T07:43:02.333Z,15.01
2023-05-18T07:44:02.003Z,15.10
2023-05-18T07:45:02.179Z,15.19
2023-05-18T07:46:02.029Z,15.23
2023-05-18T07:47:02.246Z,15.28
2023-05-18T07:48:02.983Z,15.30
2023-05-18T07:49:02.945Z,15.37
2023-05-18T07:50:02.848Z,15.41
2023-05-18T07:51:02.342Z,15.49
2023-05-18T07:52:02.525Z,15.57
2023-05-18T07:53:03.004Z,15.67
2023-05-18T07:54:02.705Z,15.77
2023-05-18T07:55:02.888Z,15.80
2023-05-18T07:56:03.033Z,15.87
2023-05-18T07:57:03.111Z,15.89
2023-05-18T07:58:02.673Z,15.94
2023-05-18T07:59:02.531Z,16.01
2023-05-18T08:00:02.639Z,16.09
2023-05-18T08:01:02.448Z,16.16
2023-05-18T08:02:02.290Z,16.22
2023-05-18T08:03:01.759Z,16.22
2023-05-18T08:04:01.853Z,16.18
2023-05-18T08:05:01.584Z,16.17
2023-05-18T08:06:02.008Z,16.12
2023-05-18T08:07:01.953Z,16.04
2023-05-18T08:08:02.628Z,15.98
2023-05-18T08:09:02.581Z,15.96
2023-05-18T08:10:02.155Z,15.93
2023-05-18T08:11:02.314Z,15.88
2023-05-18T08:12:02.004Z,15.87
2023-05-18T08:13:02.129Z,15.90
2023-05-18T08:14:02.256Z,15.96
2023-05-18T08:15:02.157Z,16.08
2023-05-18T08:16:11.075Z,16.22
2023-05-18T08:17:02.715Z,16.32
2023-05-18T08:18:02.409Z,16.45
2023-05-18T08:19:02.527Z,16.50
2023-05-18T08:20:02.888Z,16.60
2023-05-18T08:21:02.898Z,16.69
2023-05-18T08:22:02.937Z,16.77
2023-05-18T08:23:02.781Z,16.89
2023-05-18T08:24:02.382Z,16.99
2023-05-18T08:25:01.852Z,17.09
2023-05-18T08:26:01.992Z,17.19
2023-05-18T08:27:02.056Z,17.28
2023-05-18T08:28:01.866Z,17.40
2023-05-18T08:29:02.375Z,17.53
2023-05-18T08:30:02.493Z,17.64
2023-05-18T08:31:02.682Z,17.68
2023-05-18T08:32:02.673Z,17.70
2023-05-18T08:33:02.676Z,17.77
2023-05-18T08:34:01.873Z,17.84
2023-05-18T08:35:02.246Z,17.93
2023-05-18T08:36:02.133Z,18.02
2023-05-18T08:37:02.356Z,18.13
2023-05-18T08:38:02.978Z,18.24
2023-05-18T08:39:02.817Z,18.31
2023-05-18T08:40:02.717Z,18.38
2023-05-18T08:41:02.857Z,18.48
2023-05-18T08:42:02.521Z,18.55
2023-05-18T08:43:02.689Z,18.59
2023-05-18T08:44:02.994Z,18.68
2023-05-18T08:45:02.830Z,18.73
2023-05-18T08:46:02.710Z,18.75
2023-05-18T08:47:02.572Z,18.80
2023-05-18T08:48:02.748Z,18.85
2023-05-18T08:49:02.220Z,18.90
2023-05-18T08:50:01.536Z,18.99
2023-05-18T08:51:01.871Z,19.06
2023-05-18T08:52:01.978Z,19.15
2023-05-18T08:53:01.661Z,19.22
2023-05-18T08:54:02.349Z,19.29
2023-05-18T08:55:02.426Z,19.34
2023-05-18T08:56:02.460Z,19.42
2023-05-18T08:57:02.265Z,19.49
2023-05-18T08:58:02.355Z,19.51
2023-05-18T08:59:02.022Z,19.41
2023-05-18T09:00:01.955Z,19.43
2023-05-18T09:01:01.725Z,19.48
2023-05-18T09:02:01.995Z,19.51
2023-05-18T09:03:02.179Z,19.59
2023-05-18T09:04:02.353Z,19.57
2023-05-18T09:05:02.417Z,19.49
2023-05-18T09:06:02.455Z,19.41
2023-05-18T09:07:01.827Z,19.30
2023-05-18T09:08:01.862Z,19.22
2023-05-18T09:09:02.734Z,19.19
2023-05-18T09:10:02.568Z,19.12
2023-05-18T09:11:02.385Z,19.01
2023-05-18T09:12:02.454Z,19.00
2023-05-18T09:13:02.738Z,19.08
2023-05-18T09:14:02.515Z,19.21
2023-05-18T09:15:02.694Z,19.32
2023-05-18T09:16:02.724Z,19.43
2023-05-18T09:17:02.557Z,19.46
2023-05-18T09:18:02.466Z,19.49
2023-05-18T09:19:02.772Z,19.56
2023-05-18T09:20:02.712Z,19.59
2023-05-18T09:21:03.264Z,19.68
2023-05-18T09:22:03.273Z,19.79
2023-05-18T09:23:03.157Z,19.86
2023-05-18T09:24:02.766Z,19.95
2023-05-18T09:25:02.393Z,20.01
2023-05-18T09:26:02.547Z,20.06
2023-05-18T09:27:02.446Z,20.08
2023-05-18T09:28:02.683Z,20.04
2023-05-18T09:29:02.350Z,20.05
2023-05-18T09:30:02.658Z,20.07
2023-05-18T09:31:02.378Z,20.17
2023-05-18T09:32:02.847Z,20.24
2023-05-18T09:33:02.435Z,20.28
2023-05-18T09:34:02.550Z,20.33
2023-05-18T09:35:02.410Z,20.38
2023-05-18T09:36:02.564Z,20.43
2023-05-18T09:37:02.804Z,20.54
2023-05-18T09:38:02.992Z,20.59
2023-05-18T09:39:02.312Z,20.69
2023-05-18T09:40:02.465Z,20.80
2023-05-18T09:41:02.573Z,20.85
2023-05-18T09:42:02.534Z,20.86
2023-05-18T09:43:02.622Z,20.92
2023-05-18T09:44:02.990Z,20.93
2023-05-18T09:45:02.812Z,20.81
2023-05-18T09:46:02.924Z,20.76
2023-05-18T09:47:03.427Z,20.67
2023-05-18T09:48:02.890Z,20.67
2023-05-18T09:49:02.624Z,20.67
2023-05-18T09:50:02.811Z,20.63
2023-05-18T09:51:03.226Z,20.56
2023-05-18T09:52:03.171Z,20.52
2023-05-18T09:53:02.612Z,20.48
2023-05-18T09:54:02.812Z,20.41
2023-05-18T09:55:03.015Z,20.40
2023-05-18T09:56:02.870Z,20.45
2023-05-18T09:57:10.688Z,20.50
2023-05-18T09:58:02.892Z,20.61
2023-05-18T09:59:02.411Z,20.69
2023-05-18T10:00:02.099Z,20.79
2023-05-18T10:01:02.291Z,20.85
2023-05-18T10:02:02.674Z,20.90
2023-05-18T10:03:02.328Z,20.95
2023-05-18T10:04:03.130Z,20.98
2023-05-18T10:05:02.650Z,20.99
2023-05-18T10:06:02.903Z,21.04
2023-05-18T10:07:03.011Z,21.06
2023-05-18T10:08:02.573Z,21.12
2023-05-18T10:09:03.269Z,21.16
2023-05-18T10:10:02.903Z,21.16
2023-05-18T10:11:02.759Z,21.15
2023-05-18T10:12:03.213Z,21.13
2023-05-18T10:13:03.081Z,21.10
2023-05-18T10:14:02.797Z,21.10
2023-05-18T10:15:02.893Z,21.08
2023-05-18T10:16:02.330Z,21.09
2023-05-18T10:18:02.767Z,21.03
2023-05-18T10:19:02.879Z,21.07
2023-05-18T10:20:03.062Z,21.05
2023-05-18T10:21:02.810Z,21.02
2023-05-18T10:22:03.035Z,21.06
2023-05-18T10:23:02.722Z,21.12
2023-05-18T10:24:02.956Z,21.18
2023-05-18T10:25:03.018Z,21.22
2023-05-18T10:26:03.244Z,21.26
2023-05-18T10:27:03.402Z,21.24
2023-05-18T10:28:02.814Z,21.17
2023-05-18T10:29:02.591Z,21.13
2023-05-18T10:30:02.926Z,21.15
2023-05-18T10:31:02.953Z,21.18
2023-05-18T10:32:04.472Z,21.12
2023-05-18T10:33:03.960Z,21.11
2023-05-18T10:34:03.005Z,21.05
2023-05-18T10:35:02.526Z,20.93
2023-05-18T10:36:02.989Z,20.97
2023-05-18T10:37:02.570Z,20.96
2023-05-18T10:38:02.553Z,21.02
2023-05-18T10:39:03.056Z,21.06
2023-05-18T10:40:02.940Z,21.11
2023-05-18T10:41:03.011Z,21.16
2023-05-18T10:42:02.917Z,21.23
2023-05-18T10:43:02.763Z,21.30
2023-05-18T10:44:03.361Z,21.35
2023-05-18T10:45:02.909Z,21.37
2023-05-18T10:46:03.103Z,21.39
2023-05-18T10:47:03.351Z,21.42
2023-05-18T10:48:03.199Z,21.46
2023-05-18T10:49:02.543Z,21.50
2023-05-18T10:50:02.642Z,21.59
2023-05-18T10:51:02.612Z,21.63
2023-05-18T10:52:02.608Z,21.64
2023-05-18T10:53:02.778Z,21.61
2023-05-18T10:54:02.952Z,21.56
2023-05-18T10:55:03.071Z,21.51
2023-05-18T10:56:03.232Z,21.42
2023-05-18T10:57:02.930Z,21.43
2023-05-18T10:58:02.820Z,21.43
2023-05-18T10:59:03.051Z,21.50
2023-05-18T11:00:02.705Z,21.50
2023-05-18T11:01:03.137Z,21.60
2023-05-18T11:02:02.939Z,21.63
2023-05-18T11:03:03.138Z,21.66
2023-05-18T11:04:02.334Z,21.68
2023-05-18T11:05:02.149Z,21.58
2023-05-18T11:06:02.459Z,21.50
2023-05-18T11:07:02.453Z,21.47
2023-05-18T11:08:02.490Z,21.47
2023-05-18T11:09:02.754Z,21.43
2023-05-18T11:10:02.469Z,21.26
2023-05-18T11:11:02.802Z,21.08
2023-05-18T11:12:02.379Z,21.00
2023-05-18T11:13:02.548Z,20.97
2023-05-18T11:14:02.219Z,20.97
2023-05-18T11:15:02.457Z,21.00
2023-05-18T11:16:02.907Z,21.02
2023-05-18T11:17:02.836Z,21.09
2023-05-18T11:18:02.616Z,21.13
2023-05-18T11:19:03.005Z,21.11
2023-05-18T11:20:02.699Z,21.25
2023-05-18T11:21:02.599Z,21.32
2023-05-18T11:22:02.507Z,21.33
2023-05-18T11:23:02.789Z,21.36
2023-05-18T11:24:02.019Z,21.48
2023-05-18T11:25:01.996Z,21.45
2023-05-18T11:26:02.083Z,21.60
2023-05-18T11:27:02.093Z,21.69
2023-05-18T11:28:01.998Z,21.83
2023-05-18T11:29:01.902Z,21.94
2023-05-18T11:30:14.913Z,22.08
2023-05-18T11:31:02.343Z,22.20
2023-05-18T11:32:02.564Z,22.20
2023-05-18T11:33:02.214Z,22.17
2023-05-18T11:34:02.867Z,22.17
2023-05-18T11:35:02.594Z,22.01
2023-05-18T11:36:02.762Z,21.95
2023-05-18T11:37:02.961Z,22.01
2023-05-18T11:38:02.923Z,22.10
2023-05-18T11:39:02.053Z,22.14
2023-05-18T11:40:05.606Z,22.04
2023-05-18T11:41:01.970Z,22.17
2023-05-18T11:42:01.865Z,22.24
2023-05-18T11:43:02.190Z,22.35
2023-05-18T11:44:02.642Z,22.36
2023-05-18T11:45:01.999Z,22.45
2023-05-18T11:46:02.660Z,22.34
2023-05-18T11:47:02.649Z,22.48
2023-05-18T11:48:02.394Z,22.48
2023-05-18T11:49:02.193Z,22.54
2023-05-18T11:50:02.261Z,22.53
2023-05-18T11:51:02.642Z,22.48
2023-05-18T11:52:02.661Z,22.57
2023-05-18T11:53:02.288Z,22.68
2023-05-18T11:54:02.519Z,22.77
2023-05-18T11:55:02.327Z,22.82
2023-05-18T11:56:02.665Z,22.89
2023-05-18T11:57:02.165Z,23.00
2023-05-18T11:58:02.236Z,23.16
2023-05-18T11:59:02.299Z,23.28
2023-05-18T12:00:02.140Z,23.39
2023-05-18T12:01:02.281Z,23.29
2023-05-18T12:02:01.862Z,23.00
2023-05-18T12:03:02.323Z,22.80
2023-05-18T12:04:02.562Z,22.74
2023-05-18T12:05:02.309Z,22.68
2023-05-18T12:06:02.740Z,22.61
2023-05-18T12:07:02.458Z,22.54
2023-05-18T12:08:02.052Z,22.50
2023-05-18T12:09:03.777Z,22.56
2023-05-18T12:10:02.237Z,22.65
2023-05-18T12:11:02.450Z,22.76
2023-05-18T12:12:02.556Z,22.87
2023-05-18T12:13:02.133Z,22.98
2023-05-18T12:14:02.717Z,23.11
2023-05-18T12:15:02.921Z,23.20
2023-05-18T12:16:02.553Z,23.17
2023-05-18T12:17:02.852Z,23.20
2023-05-18T12:18:03.297Z,23.19
2023-05-18T12:19:03.132Z,23.17
2023-05-18T12:20:02.927Z,23.16
2023-05-18T12:21:02.971Z,23.06
2023-05-18T12:22:02.973Z,22.90
2023-05-18T12:23:02.946Z,22.95
2023-05-18T12:24:02.758Z,22.85
2023-05-18T12:25:02.901Z,22.88
2023-05-18T12:26:02.914Z,22.89
2023-05-18T12:27:04.004Z,22.93
2023-05-18T12:28:03.047Z,23.00
2023-05-18T12:29:03.542Z,23.07
2023-05-18T12:30:02.936Z,23.12
2023-05-18T12:31:03.461Z,23.24
2023-05-18T12:32:03.317Z,23.40
2023-05-18T12:33:03.271Z,23.55
2023-05-18T12:34:02.693Z,23.70
2023-05-18T12:35:02.576Z,23.79
2023-05-18T12:36:02.165Z,23.82
2023-05-18T12:37:02.328Z,23.90
2023-05-18T12:38:03.140Z,24.01
2023-05-18T12:39:02.271Z,24.12
2023-05-18T12:40:02.586Z,24.12
2023-05-18T12:41:02.264Z,23.99
2023-05-18T12:42:02.565Z,23.88
2023-05-18T12:43:02.191Z,23.84
2023-05-18T12:44:02.806Z,23.85
2023-05-18T12:45:05.087Z,23.86
2023-05-18T12:46:02.736Z,23.90
2023-05-18T12:47:02.827Z,23.83
2023-05-18T12:48:02.761Z,23.68
2023-05-18T12:49:03.391Z,23.63
2023-05-18T12:50:03.461Z,23.62
2023-05-18T12:51:02.807Z,23.68
2023-05-18T12:52:02.864Z,23.73
2023-05-18T12:53:03.030Z,23.74
2023-05-18T12:54:02.403Z,23.80
2023-05-18T12:55:02.873Z,23.80
2023-05-18T12:56:02.817Z,23.85
2023-05-18T12:57:02.835Z,23.92
2023-05-18T12:58:02.582Z,23.93
2023-05-18T12:59:02.950Z,23.92
2023-05-18T13:00:03.196Z,23.82
2023-05-18T13:01:03.516Z,23.81
2023-05-18T13:02:02.991Z,23.80
2023-05-18T13:03:02.924Z,23.88
2023-05-18T13:04:02.753Z,23.97
2023-05-18T13:05:02.536Z,24.04
2023-05-18T13:06:02.846Z,24.11